Bei Facebook empfehlenBei Twitter postenGoogle plusPinterest

Das Wetter im Erzgebirge am 19.11.2016

Wetter und Klima am 19.11.2016 Holzhau im Erzgebirge (630m ü.NN)
Letzte gemessene Temperatur und Uhrzeit der Messung23:45:00 Uhr-0.80 °C
Temperatur (Maximum / Höchstwert) und Uhrzeit der Messung13:00:00 Uhr5.00 °C
Temperatur (Minimum / Tiefstwert) und Uhrzeit der Messung23:45:00-0.80 °C
Errechneter Absolutwert der Temperaturschwankungen zwischen Tmin und Tmax des Tages5.80 K
Errechnete Tagesmitteltemperatur3.07500 °C
Gesamt - Niederschlag des Tages (in flüssiger Form)3.10 Liter / m²
Luftdruck (Maximum / Höchstwert) und Zeitpunkt der Messung23:45:00 Uhr1009.30 hPa
Luftdruck (Minimum / Tiefstwert) und Zeitpunkt der Messung13:00:00 Uhr1004.00 hPa
Errechneter Absolutwert der Luftdruckschwankungen des Tages5.30 hPa
Höchste gemessene Windgeschwindigkeit und Uhrzeit der Messung23:45:00 Uhr0.00 km/h
Errechnete Windhäufigkeit in Relation zu den Messwerten des Tages0.00000 %
Niedrigste Windkühle (Windchill) und Zeitpunkt der Messung23:45:00 Uhr-0.80 °C
Taupunkt (Maximum / Höchstwert) und Uhrzeit der Messung13:00:00 Uhr4.10 °C
Taupunkt (Minimum / Tiefstwert) und Uhrzeit der Messung23:45:00-1.90 °C
Anzahl der automatisch eingelesenen Messwerte 96

Detaillierte Wetter- und Klima- Messwerte für den 19.11.2016 in Holzhau im Erzgebirge (630m ü.NN)
ZeitTemperaturLuftdruckRel. LuftfeuchteWindWindrichtungWindchillTaupunktNiederschlag l/m²
23:45:00-0.80 °C1009.30 hPa93.00 %-1.90 °C3.10
23:30:00-0.60 °C1009.20 hPa94.00 %-1.50 °C3.10
23:15:00-0.60 °C1009.00 hPa94.00 %-1.50 °C3.10
23:00:00-0.10 °C1009.10 hPa94.00 %-1.00 °C3.10
22:45:000.10 °C1009.10 hPa94.00 %-0.70 °C3.10
22:30:000.20 °C1009.00 hPa93.00 %-0.80 °C3.10
22:15:000.40 °C1009.00 hPa93.00 %-0.60 °C3.10
22:00:001.20 °C1009.00 hPa93.00 %0.20 °C3.10
21:45:001.60 °C1008.40 hPa94.00 %0.70 °C3.10
21:30:001.60 °C1008.20 hPa94.00 %0.70 °C3.10
21:15:001.50 °C1008.50 hPa94.00 %0.60 °C3.10
21:00:001.30 °C1008.40 hPa94.00 %0.40 °C3.10
20:45:001.50 °C1008.10 hPa94.00 %0.60 °C3.10
20:30:001.80 °C1008.00 hPa94.00 %0.90 °C3.10
20:15:002.30 °C1007.80 hPa94.00 %1.40 °C3.10
20:00:002.50 °C1007.50 hPa95.00 %1.80 °C3.10
19:45:002.50 °C1007.10 hPa95.00 %1.80 °C3.10
19:30:002.40 °C1006.80 hPa95.00 %1.70 °C3.10
19:15:002.40 °C1006.60 hPa95.00 %1.70 °C3.10
19:00:002.50 °C1006.10 hPa95.00 %1.80 °C3.10
18:45:002.60 °C1006.50 hPa95.00 %1.90 °C3.10
18:30:002.70 °C1006.20 hPa94.00 %1.80 °C3.10
18:15:002.90 °C1006.00 hPa94.00 %2.00 °C3.10
18:00:002.90 °C1006.30 hPa95.00 %2.20 °C3.10
17:45:003.10 °C1006.00 hPa95.00 %2.40 °C3.10
17:30:003.20 °C1005.70 hPa95.00 %2.50 °C3.10
17:15:003.20 °C1006.00 hPa94.00 %2.30 °C3.10
17:00:003.20 °C1005.10 hPa94.00 %2.30 °C3.10
16:45:003.20 °C1004.90 hPa94.00 %2.30 °C2.59
16:30:003.30 °C1004.80 hPa94.00 %2.40 °C2.59
16:15:003.40 °C1005.10 hPa94.00 %2.50 °C2.59
16:00:003.50 °C1005.10 hPa94.00 %2.60 °C2.59
15:45:003.60 °C1004.90 hPa94.00 %2.70 °C2.07
15:30:003.80 °C1005.00 hPa93.00 %2.80 °C2.07
15:15:003.80 °C1005.10 hPa93.00 %2.80 °C2.07
15:00:003.90 °C1004.90 hPa93.00 %2.90 °C2.07
14:45:004.10 °C1004.50 hPa94.00 %3.20 °C1.55
14:30:004.10 °C1004.70 hPa94.00 %3.20 °C1.55
14:15:004.10 °C1004.60 hPa93.00 %3.10 °C1.03
14:00:004.30 °C1004.70 hPa93.00 %3.30 °C1.03
13:45:004.40 °C1004.60 hPa93.00 %3.40 °C1.03
13:30:004.70 °C1004.30 hPa93.00 %3.70 °C1.03
13:15:004.90 °C1004.20 hPa93.00 %3.90 °C1.03
13:00:005.00 °C1004.00 hPa94.00 %4.10 °C1.03
12:45:004.90 °C1004.20 hPa94.00 %4.00 °C1.03
12:30:004.90 °C1004.50 hPa94.00 %4.00 °C1.03
12:15:004.80 °C1004.50 hPa94.00 %3.90 °C1.03
12:00:004.60 °C1004.70 hPa94.00 %3.70 °C1.03
11:45:004.30 °C1004.90 hPa94.00 %3.40 °C1.03
11:30:004.20 °C1005.10 hPa94.00 %3.30 °C1.03
11:15:004.10 °C1005.10 hPa94.00 %3.20 °C1.03
11:00:003.90 °C1005.30 hPa94.00 %3.00 °C1.03
10:45:003.80 °C1005.60 hPa94.00 %2.90 °C1.03
10:30:003.80 °C1005.50 hPa94.00 %2.90 °C1.03
10:15:003.60 °C1005.60 hPa94.00 %2.70 °C1.03
10:00:003.60 °C1005.90 hPa94.00 %2.70 °C1.03
09:45:003.50 °C1006.30 hPa93.00 %2.50 °C1.03
09:30:003.50 °C1006.20 hPa93.00 %2.50 °C0.51
09:15:003.60 °C1006.50 hPa93.00 %2.60 °C0.51
09:00:003.70 °C1006.80 hPa93.00 %2.70 °C 
08:45:003.60 °C1006.80 hPa93.00 %2.60 °C 
08:30:003.80 °C1006.60 hPa93.00 %2.80 °C 
08:15:003.90 °C1006.70 hPa93.00 %2.90 °C 
08:00:003.90 °C1006.60 hPa93.00 %2.90 °C 
07:45:003.80 °C1006.70 hPa93.00 %2.80 °C 
07:30:003.80 °C1006.80 hPa93.00 %2.80 °C 
07:15:003.90 °C1006.80 hPa93.00 %2.90 °C 
07:00:003.80 °C1007.00 hPa93.00 %2.80 °C 
06:45:003.80 °C1007.00 hPa93.00 %2.80 °C 
06:30:003.60 °C1006.70 hPa93.00 %2.60 °C 
06:15:003.60 °C1007.00 hPa93.00 %2.60 °C 
06:00:003.60 °C1007.20 hPa93.00 %2.60 °C 
05:45:003.50 °C1007.20 hPa93.00 %2.50 °C 
05:30:003.40 °C1007.40 hPa93.00 %2.40 °C 
05:15:003.30 °C1007.30 hPa93.00 %2.30 °C 
05:00:003.30 °C1007.50 hPa93.00 %2.30 °C 
04:45:003.10 °C1007.40 hPa93.00 %2.10 °C 
04:30:002.90 °C1007.30 hPa92.00 %1.70 °C 
04:15:002.90 °C1007.10 hPa92.00 %1.70 °C 
04:00:002.80 °C1007.10 hPa92.00 %1.60 °C 
03:45:002.80 °C1007.00 hPa92.00 %1.60 °C 
03:30:002.80 °C1006.70 hPa92.00 %1.60 °C 
03:15:002.80 °C1006.70 hPa92.00 %1.60 °C 
03:00:002.80 °C1007.00 hPa92.00 %1.60 °C 
02:45:002.80 °C1007.20 hPa91.00 %1.50 °C 
02:30:002.80 °C1007.20 hPa91.00 %1.50 °C 
02:15:002.70 °C1007.30 hPa91.00 %1.40 °C 
02:00:002.80 °C1007.70 hPa91.00 %1.50 °C 
01:45:003.00 °C1007.50 hPa90.00 %1.50 °C 
01:30:003.20 °C1007.00 hPa90.00 %1.70 °C 
01:15:003.40 °C1007.00 hPa90.00 %1.90 °C 
01:00:003.30 °C1007.10 hPa90.00 %1.80 °C 
00:45:003.10 °C1006.80 hPa89.00 %1.50 °C 
00:30:003.40 °C1007.10 hPa89.00 %1.80 °C 
00:15:003.50 °C1007.10 hPa89.00 %1.90 °C 
00:00:003.30 °C1007.00 hPa89.00 %1.70 °C 

Permanenter Link zu dieser Seite: Wetter im Erzgebirge am 19.11.2016
Performance-Info: Die Erstellung der Seite / Statistik(en) / Tabelle(n) erforderte 5 Datenbankserver-Abfrage(n) und dauerte 100 Millisekunden. (Dieser Messwert ist von der Gesamt-Auslastung des Servers abhängig.)
Erzgebirge - Wetter | Erzgebirge - Wetter (Mobilgeräte) | Komplette Klimadatenbank